KCDC/CDC METAR and TAF weather

Enter ICAO airport designator
Station Type Date Time Source
KCDC METAR 2020/09/22 22:53 UTC NOAA

KCDC 222253Z AUTO 22007KT 10SM -RA FEW032 24/04 A3015 RMK AO2 RAB02E15B40 SLP133 P0000 T02440044


Station Type Date Time Source
KCDC Decoded METAR 2020/09/22 22:53 UTC NOAA

CEDAR CITY MUN AIRPORT, UT, United States (KCDC) 37-42N 113-06W 1714M
Sep 22, 2020 - 06:53 PM EDT / 2020.09.22 2253 UTC
Wind: from the SW (220 degrees) at 8 MPH (7 KT):0
Visibility: 10 mile(s):0
Sky conditions: mostly clear
Weather: light rain
Precipitation last hour: A trace
Temperature: 75.9 F (24.4 C)
Dew Point: 39.9 F (4.4 C)
Relative Humidity: 27%
Pressure (altimeter): 30.15 in. Hg (1020 hPa)
ob: KCDC 222253Z AUTO 22007KT 10SM -RA FEW032 24/04 A3015 RMK AO2 RAB02E15B40 SLP133 P0000 T02440044
cycle: 23

Station Type Date Time Source
KCDC TAF 2020/09/22 18:33 UTC NOAA

TAF KCDC 221730Z 2218/2318 22010KT P6SM SCT120
FM221900 21012G22KT P6SM VCSH FEW090 SCT120
FM230100 18007KT P6SM SCT120

Example: see airport list